Time;durP1;ratioP1;P1;durP2;ratioP2;P2;SDS_P1;SDS_P2;PMS_P1;PMS_P2;Temp;Humidity;BMP_temperature;BMP_pressure;BME280_temperature;BME280_humidity;BME280_pressure;Samples;Min_cycle;Max_cycle;Signal;HPM_P1;HPM_P2
2021/11/25 00:01:49;;;;;;;39.57;22.83;;;;;;;-0.71;95.30;95039.56;4993871;28;20177;-81
2021/11/25 00:04:15;;;;;;;40.97;23.10;;;;;;;-0.71;95.18;95031.91;5011268;28;20747;-82
2021/11/25 00:06:40;;;;;;;36.80;21.70;;;;;;;-0.70;95.10;95033.56;4994719;28;20271;-82
2021/11/25 00:09:05;;;;;;;43.90;22.83;;;;;;;-0.69;95.01;95024.19;5009884;28;20217;-82
2021/11/25 00:11:31;;;;;;;41.40;21.93;;;;;;;-0.66;95.12;95024.00;4994196;28;20190;-82
2021/11/25 00:13:56;;;;;;;40.30;22.97;;;;;;;-0.71;95.11;95015.78;4994640;28;20681;-82
2021/11/25 00:16:21;;;;;;;42.10;22.30;;;;;;;-0.75;95.14;95010.06;5010909;28;20190;-82
2021/11/25 00:18:47;;;;;;;46.33;23.43;;;;;;;-0.72;95.48;95004.78;5011110;28;20191;-82
2021/11/25 00:21:12;;;;;;;40.70;22.40;;;;;;;-0.73;95.67;95008.25;4993847;28;20197;-82
2021/11/25 00:23:38;;;;;;;40.37;22.00;;;;;;;-0.63;95.21;95005.94;5010893;28;20199;-82
2021/11/25 00:26:03;;;;;;;38.27;20.90;;;;;;;-0.68;95.22;95006.25;5010939;28;20207;-81
2021/11/25 00:28:30;;;;;;;39.73;21.83;;;;;;;-0.63;95.18;95008.50;4994630;28;20214;-82
2021/11/25 00:30:55;;;;;;;40.57;22.50;;;;;;;-0.67;95.24;94999.41;5010984;28;20184;-82
2021/11/25 00:33:20;;;;;;;45.33;22.83;;;;;;;-0.72;95.52;94994.56;5010227;28;20278;-82
2021/11/25 00:35:46;;;;;;;40.57;23.17;;;;;;;-0.66;95.71;94999.31;4994477;28;20713;-82
2021/11/25 00:38:11;;;;;;;45.17;23.80;;;;;;;-0.70;95.35;94997.06;4994394;28;21131;-81
2021/11/25 00:40:36;;;;;;;47.60;23.70;;;;;;;-0.71;95.38;94995.41;4994877;28;20611;-82
2021/11/25 00:43:02;;;;;;;39.07;22.27;;;;;;;-0.70;95.53;94991.97;5013873;28;20587;-81
2021/11/25 00:45:27;;;;;;;44.03;23.70;;;;;;;-0.71;95.83;94993.66;4998195;28;20232;-82
2021/11/25 00:47:52;;;;;;;43.97;22.47;;;;;;;-0.74;95.76;94995.59;4997777;28;20242;-82
2021/11/25 00:50:19;;;;;;;41.00;22.70;;;;;;;-0.73;95.46;94990.41;5014367;28;20214;-82
2021/11/25 00:52:45;;;;;;;45.13;23.57;;;;;;;-0.75;95.79;94988.84;5013545;28;20667;-82
2021/11/25 00:55:11;;;;;;;39.07;22.70;;;;;;;-0.81;96.14;94987.47;4997773;28;20297;-82
2021/11/25 00:57:36;;;;;;;43.47;22.20;;;;;;;-0.76;95.43;94997.41;5015450;28;20178;-81
2021/11/25 01:00:04;;;;;;;44.97;22.93;;;;;;;-0.76;95.93;94987.22;4997653;28;20272;-82
2021/11/25 01:02:29;;;;;;;44.03;24.67;;;;;;;-0.77;96.39;94985.59;5013590;28;20332;-82
2021/11/25 01:04:55;;;;;;;42.67;24.00;;;;;;;-0.80;96.20;94980.66;5014072;28;20274;-82
2021/11/25 01:07:20;;;;;;;42.87;24.00;;;;;;;-0.78;96.42;94989.06;4996535;28;20293;-82
2021/11/25 01:09:46;;;;;;;39.03;22.60;;;;;;;-0.77;96.14;94977.94;4997487;28;20600;-82
2021/11/25 01:12:11;;;;;;;42.10;21.47;;;;;;;-0.76;96.43;94984.69;5012625;28;20202;-82
2021/11/25 01:14:38;;;;;;;41.80;22.73;;;;;;;-0.75;96.54;94981.22;4997164;28;20655;-82
2021/11/25 01:17:04;;;;;;;40.57;22.87;;;;;;;-0.75;96.36;94978.66;5013722;28;20174;-82
2021/11/25 01:19:29;;;;;;;41.53;22.23;;;;;;;-0.76;96.33;94974.47;4997355;28;20233;-82
2021/11/25 01:21:55;;;;;;;36.23;22.00;;;;;;;-0.72;96.30;94971.63;5013066;28;20190;-82
2021/11/25 01:24:20;;;;;;;44.50;25.37;;;;;;;-0.74;96.16;94968.38;5013632;28;20187;-82
2021/11/25 01:26:45;;;;;;;42.10;22.63;;;;;;;-0.78;95.95;94973.75;5013841;28;20198;-81
2021/11/25 01:29:11;;;;;;;40.73;22.53;;;;;;;-0.73;96.57;94972.53;4997817;28;20696;-82
2021/11/25 01:31:40;;;;;;;38.63;21.47;;;;;;;-0.73;96.46;94967.44;5007759;28;20194;-81
2021/11/25 01:34:06;;;;;;;40.67;22.60;;;;;;;-0.75;96.29;94971.00;5013257;28;20182;-81
2021/11/25 01:36:31;;;;;;;44.30;23.83;;;;;;;-0.74;96.76;94962.44;5024410;28;20225;-82
2021/11/25 01:38:57;;;;;;;40.47;22.03;;;;;;;-0.73;96.37;94964.06;5013826;28;20194;-82
2021/11/25 01:41:22;;;;;;;45.20;23.43;;;;;;;-0.71;96.26;94957.97;4996525;28;20191;-82
2021/11/25 01:43:47;;;;;;;46.80;22.77;;;;;;;-0.74;96.47;94968.38;5013223;28;20199;-81
2021/11/25 01:46:15;;;;;;;45.73;23.80;;;;;;;-0.72;96.71;94968.25;5012851;28;20210;-82
2021/11/25 01:48:41;;;;;;;49.00;24.43;;;;;;;-0.76;96.45;94966.81;5007237;28;20584;-82
2021/11/25 01:51:07;;;;;;;44.00;23.77;;;;;;;-0.77;96.64;94958.34;4996255;28;20182;-82
2021/11/25 01:53:32;;;;;;;49.10;24.93;;;;;;;-0.75;96.52;94965.91;5012115;28;20210;-81
2021/11/25 01:55:58;;;;;;;44.63;24.33;;;;;;;-0.74;96.49;94967.53;4996828;28;20185;-82
2021/11/25 01:58:24;;;;;;;45.17;24.40;;;;;;;-0.80;96.89;94955.97;5013321;28;20261;-82
2021/11/25 02:00:53;;;;;;;44.57;23.60;;;;;;;-0.79;97.20;94950.00;5012616;28;20186;-82
2021/11/25 02:03:18;;;;;;;44.30;22.87;;;;;;;-0.73;97.06;94941.94;5012213;28;20209;-82
2021/11/25 02:05:44;;;;;;;42.63;22.63;;;;;;;-0.71;96.93;94945.22;5012903;28;20591;-82
2021/11/25 02:08:10;;;;;;;42.10;22.53;;;;;;;-0.73;96.84;94947.03;5011798;28;20213;-82
2021/11/25 02:10:37;;;;;;;46.03;23.73;;;;;;;-0.72;96.72;94942.75;5012769;28;20182;-82
2021/11/25 02:13:03;;;;;;;41.83;22.13;;;;;;;-0.69;96.63;94934.94;4995458;28;20666;-82
2021/11/25 02:15:34;;;;;;;42.30;23.50;;;;;;;-0.69;96.70;94929.84;5012502;28;20239;-82
2021/11/25 02:18:04;;;;;;;40.57;21.93;;;;;;;-0.74;96.34;94932.66;5012530;28;20170;-82
2021/11/25 02:20:38;;;;;;;41.17;22.00;;;;;;;-0.70;96.96;94938.41;5012437;28;20190;-82
2021/11/25 02:23:03;;;;;;;42.67;22.23;;;;;;;-0.68;96.63;94939.13;5011732;28;20203;-82
2021/11/25 02:25:29;;;;;;;42.60;23.23;;;;;;;-0.67;96.78;94940.75;5026487;28;20214;-82
2021/11/25 02:27:54;;;;;;;42.90;22.80;;;;;;;-0.69;96.71;94925.56;5031902;28;20831;-82
2021/11/25 02:30:20;;;;;;;43.77;23.47;;;;;;;-0.67;96.43;94930.56;5031901;28;20198;-82
2021/11/25 02:32:46;;;;;;;40.57;23.13;;;;;;;-0.65;96.28;94924.44;5014868;28;20225;-82
2021/11/25 02:35:15;;;;;;;40.60;21.33;;;;;;;-0.69;95.93;94920.47;5015221;28;20274;-81
2021/11/25 02:37:40;;;;;;;40.30;21.30;;;;;;;-0.69;96.46;94920.47;5031702;28;20188;-82
2021/11/25 02:40:17;;;;;;;43.07;22.47;;;;;;;-0.67;96.25;94915.25;5015732;28;20183;-81
2021/11/25 02:42:42;;;;;;;36.50;20.10;;;;;;;-0.64;96.25;94908.22;5014673;28;20703;-82
2021/11/25 02:45:08;;;;;;;43.03;22.17;;;;;;;-0.68;95.81;94908.53;5031638;28;20178;-82
2021/11/25 02:47:34;;;;;;;37.93;21.00;;;;;;;-0.71;95.77;94906.16;5015407;28;20203;-81
2021/11/25 02:49:59;;;;;;;36.80;19.07;;;;;;;-0.74;96.02;94909.72;5015360;28;20190;-82
2021/11/25 02:52:25;;;;;;;33.67;19.93;;;;;;;-0.75;96.48;94905.53;5014304;28;20297;-82
2021/11/25 02:54:51;;;;;;;37.00;20.47;;;;;;;-0.75;96.18;94900.44;5014939;28;20176;-81
2021/11/25 02:57:17;;;;;;;37.43;20.83;;;;;;;-0.74;96.47;94896.16;5048326;28;20181;-81
2021/11/25 02:59:42;;;;;;;39.13;20.77;;;;;;;-0.75;96.05;94900.44;5031608;28;20192;-82
2021/11/25 03:02:07;;;;;;;39.23;21.00;;;;;;;-0.76;96.16;94896.25;5013972;28;20208;-81
2021/11/25 03:04:33;;;;;;;38.10;21.27;;;;;;;-0.82;96.11;94888.97;5030644;28;20178;-82
2021/11/25 03:06:58;;;;;;;37.13;20.43;;;;;;;-0.79;96.17;94882.91;5014069;28;20652;-82
2021/11/25 03:09:23;;;;;;;41.20;22.27;;;;;;;-0.78;96.39;94881.97;5014623;28;20197;-81
2021/11/25 03:11:53;;;;;;;42.67;22.00;;;;;;;-0.79;96.17;94875.25;5014154;28;20193;-81
2021/11/25 03:14:18;;;;;;;43.50;22.80;;;;;;;-0.84;96.55;94879.81;5015275;28;20225;-82
2021/11/25 03:16:44;;;;;;;39.90;20.77;;;;;;;-0.80;96.20;94876.13;5031273;28;20209;-82
2021/11/25 03:19:11;;;;;;;36.87;19.93;;;;;;;-0.78;96.41;94879.44;5031247;28;20520;-81
2021/11/25 03:21:36;;;;;;;39.97;21.20;;;;;;;-0.80;96.32;94876.13;5030297;28;20209;-82
2021/11/25 03:24:02;;;;;;;36.07;20.20;;;;;;;-0.82;96.90;94881.34;5031287;28;20188;-82
2021/11/25 03:26:28;;;;;;;39.83;20.87;;;;;;;-0.79;96.12;94881.16;5030781;28;20198;-81
2021/11/25 03:28:54;;;;;;;31.03;17.80;;;;;;;-0.79;96.21;94881.16;5014362;28;20198;-81
2021/11/25 03:31:24;;;;;;;39.17;20.30;;;;;;;-0.86;96.32;94885.81;5014518;28;20551;-82
2021/11/25 03:33:50;;;;;;;30.37;17.70;;;;;;;-0.95;96.11;94883.84;5014581;28;20208;-81
2021/11/25 03:36:15;;;;;;;34.00;18.60;;;;;;;-0.88;96.52;94890.19;5030822;28;20185;-81
2021/11/25 03:38:41;;;;;;;37.37;19.70;;;;;;;-0.91;96.04;94890.38;5014405;28;20200;-81
2021/11/25 03:41:09;;;;;;;31.30;18.13;;;;;;;-0.97;96.31;94888.22;5014247;28;20181;-81
2021/11/25 03:43:34;;;;;;;39.40;19.97;;;;;;;-1.03;96.89;94882.66;5014433;28;20232;-81
2021/11/25 03:46:00;;;;;;;32.40;18.80;;;;;;;-0.99;96.72;94882.38;5014688;28;20555;-81
2021/11/25 03:48:28;;;;;;;36.57;20.17;;;;;;;-1.00;96.49;94883.28;5030833;28;20237;-81
2021/11/25 03:50:56;;;;;;;37.43;21.27;;;;;;;-0.95;96.34;94875.38;5031084;28;20257;-81
2021/11/25 03:53:21;;;;;;;36.20;20.70;;;;;;;-1.05;96.69;94875.13;5013717;28;20235;-82
2021/11/25 03:55:47;;;;;;;38.97;21.37;;;;;;;-1.04;97.01;94873.38;5014510;28;20185;-81
2021/11/25 03:58:12;;;;;;;40.17;21.20;;;;;;;-0.98;96.94;94878.09;5031389;28;20598;-81
2021/11/25 04:00:38;;;;;;;40.00;20.40;;;;;;;-0.95;96.95;94875.38;5014519;28;20231;-82
2021/11/25 04:03:04;;;;;;;38.67;22.40;;;;;;;-1.05;97.24;94869.22;5030535;28;20201;-82
2021/11/25 04:05:30;;;;;;;40.47;21.40;;;;;;;-0.96;97.05;94869.47;5014255;28;20188;-82
2021/11/25 04:07:56;;;;;;;41.27;22.07;;;;;;;-0.95;96.71;94866.00;5029145;28;20879;-82
2021/11/25 04:10:21;;;;;;;40.57;21.97;;;;;;;-0.94;97.01;94866.81;5014233;28;20279;-80
2021/11/25 04:12:47;;;;;;;39.80;21.53;;;;;;;-0.99;96.73;94863.72;5013463;28;20699;-81
2021/11/25 04:15:14;;;;;;;43.20;21.13;;;;;;;-0.96;97.22;94871.19;5014208;28;20189;-82
2021/11/25 04:17:39;;;;;;;41.57;21.10;;;;;;;-0.99;97.13;94861.97;5017637;28;20185;-81
2021/11/25 04:20:06;;;;;;;36.37;19.37;;;;;;;-1.03;97.30;94864.81;5034847;28;20185;-81
2021/11/25 04:22:31;;;;;;;39.83;20.20;;;;;;;-1.02;97.65;94864.72;5033984;28;20578;-81
2021/11/25 04:24:57;;;;;;;38.13;20.27;;;;;;;-1.00;97.24;94862.91;5017889;28;20208;-81
2021/11/25 04:27:23;;;;;;;38.30;19.93;;;;;;;-0.96;97.15;94864.38;5034191;28;20208;-82
2021/11/25 04:29:57;;;;;;;36.63;20.63;;;;;;;-0.94;97.41;94852.34;5017948;28;20189;-81
2021/11/25 04:37:51;;;;;;;37.97;20.33;;;;;;;-0.95;96.78;94854.97;5034661;28;20684;-82
2021/11/25 04:40:17;;;;;;;35.87;19.37;;;;;;;-0.98;96.61;94850.88;5034304;28;20178;-82
2021/11/25 04:42:42;;;;;;;41.20;21.33;;;;;;;-0.94;97.00;94854.06;5033467;28;20685;-82
2021/11/25 04:45:08;;;;;;;38.90;20.27;;;;;;;-0.92;96.84;94847.94;5033786;28;20174;-81
2021/11/25 04:47:33;;;;;;;38.80;20.63;;;;;;;-0.99;96.68;94849.25;5035125;28;20216;-82
2021/11/25 04:49:59;;;;;;;35.63;19.67;;;;;;;-0.94;96.87;94844.69;5033622;28;20185;-81
2021/11/25 04:52:24;;;;;;;35.47;19.67;;;;;;;-0.93;96.73;94846.31;5016670;28;20734;-81
2021/11/25 04:54:49;;;;;;;38.37;19.87;;;;;;;-0.93;97.17;94842.94;5017347;28;20186;-82
2021/11/25 04:57:15;;;;;;;37.60;20.10;;;;;;;-1.04;96.70;94853.00;5033926;28;20271;-82
2021/11/25 04:59:40;;;;;;;34.80;19.73;;;;;;;-1.01;97.02;94850.25;5033876;28;20177;-82
2021/11/25 05:02:05;;;;;;;37.27;19.80;;;;;;;-1.03;97.04;94841.91;5050335;28;20556;-82
2021/11/25 05:04:31;;;;;;;36.70;20.47;;;;;;;-0.95;97.21;94839.69;5050700;28;20177;-82
2021/11/25 05:06:56;;;;;;;37.30;19.73;;;;;;;-1.07;97.08;94836.16;5033362;28;20189;-82
2021/11/25 05:09:22;;;;;;;38.83;21.47;;;;;;;-0.96;97.14;94838.88;5033752;28;20184;-82
2021/11/25 05:11:47;;;;;;;37.37;21.20;;;;;;;-1.00;97.12;94834.88;5017176;28;20194;-82
2021/11/25 05:14:12;;;;;;;35.13;19.67;;;;;;;-0.91;97.38;94831.75;5017061;28;20182;-82
2021/11/25 05:16:38;;;;;;;37.73;20.10;;;;;;;-0.95;96.82;94835.41;5017213;28;20622;-82
2021/11/25 05:19:03;;;;;;;37.97;19.37;;;;;;;-0.97;97.21;94838.94;5017327;28;20846;-83
2021/11/25 05:21:28;;;;;;;41.30;21.33;;;;;;;-0.93;96.73;94835.31;5034757;28;20181;-81
2021/11/25 05:23:54;;;;;;;35.77;19.13;;;;;;;-0.97;97.00;94837.25;5033934;28;20212;-82
2021/11/25 05:26:19;;;;;;;35.63;18.63;;;;;;;-0.93;96.87;94837.84;5034232;28;20228;-81
2021/11/25 05:28:45;;;;;;;40.43;20.43;;;;;;;-1.05;96.76;94834.34;5016407;28;20209;-81
2021/11/25 05:31:10;;;;;;;35.10;19.03;;;;;;;-0.99;96.84;94840.78;5016664;28;20185;-82
2021/11/25 05:33:35;;;;;;;38.53;20.37;;;;;;;-0.98;96.90;94833.03;5017290;28;20850;-82
2021/11/25 05:36:01;;;;;;;37.07;20.03;;;;;;;-0.96;96.97;94838.88;5033787;28;20269;-82
2021/11/25 05:38:26;;;;;;;39.93;21.07;;;;;;;-0.95;96.62;94845.59;5049897;28;20256;-82
2021/11/25 05:40:52;;;;;;;39.37;20.20;;;;;;;-0.91;96.96;94844.47;5050331;28;20568;-82
2021/11/25 05:43:17;;;;;;;38.27;20.07;;;;;;;-0.89;96.76;94842.66;5032749;28;20200;-81
2021/11/25 05:45:42;;;;;;;39.03;20.83;;;;;;;-0.88;96.72;94844.31;5017023;28;20185;-82
2021/11/25 05:48:08;;;;;;;43.53;22.30;;;;;;;-0.99;96.76;94841.59;5033702;28;20198;-82
2021/11/25 05:50:33;;;;;;;38.40;21.53;;;;;;;-0.83;96.58;94838.09;5016714;28;20707;-82
2021/11/25 05:52:59;;;;;;;43.27;21.90;;;;;;;-0.77;96.46;94847.91;5016422;28;20744;-82
2021/11/25 05:55:27;;;;;;;37.77;21.20;;;;;;;-0.80;96.06;94838.72;5033079;28;20183;-82
2021/11/25 05:57:53;;;;;;;42.20;21.73;;;;;;;-0.78;95.79;94841.19;5031885;28;20633;-82
2021/11/25 06:00:19;;;;;;;37.53;21.00;;;;;;;-0.77;95.79;94838.53;5032991;28;20624;-82
2021/11/25 06:02:46;;;;;;;41.07;21.03;;;;;;;-0.77;95.61;94832.63;5015560;28;20304;-83
2021/11/25 06:05:13;;;;;;;35.33;20.53;;;;;;;-0.79;95.43;94835.28;5016500;28;20185;-82
2021/11/25 06:07:42;;;;;;;32.70;19.47;;;;;;;-0.81;95.39;94837.06;5016226;28;20205;-82
2021/11/25 06:10:08;;;;;;;36.97;20.70;;;;;;;-0.77;95.48;94838.53;5032720;28;20650;-83
2021/11/25 06:12:33;;;;;;;38.33;21.33;;;;;;;-0.75;95.54;94841.81;5015515;28;20343;-82
2021/11/25 06:14:59;;;;;;;32.90;18.93;;;;;;;-0.78;95.50;94843.75;5015969;28;20316;-82
2021/11/25 06:17:24;;;;;;;31.23;17.77;;;;;;;-0.87;95.01;94840.03;5016497;28;20184;-82
2021/11/25 06:19:53;;;;;;;32.27;17.87;;;;;;;-0.85;95.23;94843.28;5034621;28;20636;-83
2021/11/25 06:22:19;;;;;;;35.03;19.23;;;;;;;-0.78;95.24;94836.09;5032309;28;20201;-82
2021/11/25 06:24:45;;;;;;;34.87;19.13;;;;;;;-0.78;95.08;94838.63;5016175;28;20529;-82
2021/11/25 06:27:10;;;;;;;36.27;18.90;;;;;;;-0.77;94.91;94840.28;5018926;28;20198;-82
2021/11/25 06:29:35;;;;;;;35.13;20.37;;;;;;;-0.74;95.08;94840.06;5033461;28;20221;-84
2021/11/25 06:32:01;;;;;;;35.43;20.50;;;;;;;-0.73;95.13;94834.03;5013623;28;20209;-83
2021/11/25 06:34:26;;;;;;;39.00;19.83;;;;;;;-0.75;95.17;94836.69;5019132;28;20193;-80
2021/11/25 06:36:51;;;;;;;34.97;18.77;;;;;;;-0.73;95.15;94841.69;5028085;28;20216;-84
2021/11/25 06:39:16;;;;;;;31.30;17.67;;;;;;;-0.92;94.60;94853.03;5014419;28;20185;-83
2021/11/25 06:41:42;;;;;;;35.23;19.57;;;;;;;-0.91;94.70;94862.31;5026663;28;20189;-84
2021/11/25 06:44:07;;;;;;;36.10;18.77;;;;;;;-0.82;94.92;94862.66;5032546;28;20528;-83
2021/11/25 06:46:32;;;;;;;39.03;21.10;;;;;;;-0.80;95.07;94860.84;5016634;28;20233;-82
2021/11/25 06:48:58;;;;;;;33.57;19.17;;;;;;;-0.74;95.21;94857.91;5041754;28;20259;-82
2021/11/25 06:51:24;;;;;;;38.93;20.87;;;;;;;-0.83;94.71;94858.50;5032549;28;20190;-81
2021/11/25 06:53:49;;;;;;;34.70;20.23;;;;;;;-0.81;94.67;94860.03;5048908;28;20200;-83
2021/11/25 06:56:14;;;;;;;39.03;20.60;;;;;;;-0.79;95.13;94860.75;5032655;28;20204;-84
2021/11/25 06:58:40;;;;;;;35.90;20.47;;;;;;;-0.83;94.87;94855.94;5032391;28;20191;-83
2021/11/25 07:01:07;;;;;;;38.50;21.23;;;;;;;-0.75;94.92;94861.38;5031176;28;20186;-83
2021/11/25 07:03:34;;;;;;;42.77;22.93;;;;;;;-0.70;94.86;94854.28;5047503;28;20665;-83
2021/11/25 07:06:00;;;;;;;43.93;22.93;;;;;;;-0.68;94.87;94857.53;5032008;28;20629;-84
2021/11/25 07:08:26;;;;;;;43.73;22.03;;;;;;;-0.69;94.66;94855.91;5032303;28;20205;-84
2021/11/25 07:10:51;;;;;;;42.67;21.27;;;;;;;-0.70;94.37;94860.19;5039415;28;20681;-83
2021/11/25 07:13:17;;;;;;;39.10;20.23;;;;;;;-0.66;94.61;94863.34;5051736;28;20205;-83
2021/11/25 07:15:42;;;;;;;36.43;20.40;;;;;;;-0.69;94.66;94861.00;5051479;28;20188;-84
2021/11/25 07:18:07;;;;;;;39.77;21.47;;;;;;;-0.65;94.72;94857.34;5047502;28;20228;-84
2021/11/25 07:20:32;;;;;;;35.97;21.60;;;;;;;-0.65;94.36;94863.25;5037415;28;20594;-83
2021/11/25 07:22:58;;;;;;;37.80;20.03;;;;;;;-0.60;94.70;94862.97;5026653;28;20208;-83
2021/11/25 07:25:25;;;;;;;36.23;19.20;;;;;;;-0.58;94.45;94853.50;5064701;28;20207;-84
2021/11/25 07:27:50;;;;;;;40.57;21.93;;;;;;;-0.67;94.78;94843.88;5023218;28;20565;-84
2021/11/25 07:30:17;;;;;;;36.83;20.63;;;;;;;-0.67;94.83;94849.78;5016734;28;20200;-83
2021/11/25 07:32:42;;;;;;;41.23;20.67;;;;;;;-0.65;95.04;94858.16;5037873;28;20215;-83
2021/11/25 07:35:09;;;;;;;40.33;21.67;;;;;;;-0.67;95.25;94865.09;5040109;28;20185;-83
2021/11/25 07:37:34;;;;;;;38.23;22.10;;;;;;;-0.61;94.72;94869.00;5030596;28;20224;-83
2021/11/25 07:40:00;;;;;;;39.10;22.57;;;;;;;-0.75;95.34;94874.94;5031627;28;20193;-83
2021/11/25 07:42:25;;;;;;;48.80;26.10;;;;;;;-0.73;95.12;94872.28;5023279;28;20228;-84
2021/11/25 07:44:51;;;;;;;39.83;22.03;;;;;;;-0.66;95.20;94865.91;5034473;28;20546;-84
2021/11/25 07:47:32;;;;;;;39.77;21.87;;;;;;;-0.64;95.29;94869.97;5052961;28;20253;-83
2021/11/25 07:49:58;;;;;;;46.37;23.43;;;;;;;-0.70;95.59;94867.03;5037464;28;20177;-78
2021/11/25 07:52:24;;;;;;;44.77;23.33;;;;;;;-0.58;95.10;94867.06;5013789;28;20291;-82
2021/11/25 07:54:49;;;;;;;40.57;22.20;;;;;;;-0.59;94.81;94872.25;5015175;28;20674;-82
2021/11/25 07:57:14;;;;;;;44.03;22.60;;;;;;;-0.59;95.27;94879.91;5015572;28;20817;-83
2021/11/25 07:59:39;;;;;;;38.30;21.23;;;;;;;-0.65;94.59;94862.44;5031431;28;20177;-83
2021/11/25 08:02:05;;;;;;;39.83;22.47;;;;;;;-0.63;94.28;94855.50;5031605;28;20205;-84
2021/11/25 08:04:30;;;;;;;43.57;22.57;;;;;;;-0.48;94.06;94859.63;5016556;28;20575;-82
2021/11/25 08:06:56;;;;;;;36.73;20.43;;;;;;;-0.57;94.00;94870.41;5032112;28;20174;-83
2021/11/25 08:09:21;;;;;;;40.13;21.73;;;;;;;-0.46;94.14;94865.44;5015945;28;20219;-84
2021/11/25 08:11:46;;;;;;;38.03;20.30;;;;;;;-0.44;93.96;94855.13;5016323;28;20181;-84
2021/11/25 08:14:13;;;;;;;40.03;21.60;;;;;;;-0.47;94.12;94855.34;5019301;28;20296;-85
2021/11/25 08:16:38;;;;;;;61.47;30.93;;;;;;;-0.54;94.21;94854.09;5048081;28;20182;-85
2021/11/25 08:19:05;;;;;;;45.03;25.27;;;;;;;-0.55;94.21;94855.84;5031913;28;20193;-84
2021/11/25 08:21:30;;;;;;;47.33;26.40;;;;;;;-0.50;94.14;94856.38;5014944;28;20185;-84
2021/11/25 08:23:55;;;;;;;43.17;22.90;;;;;;;-0.48;94.26;94851.97;5032666;28;20212;-84
2021/11/25 08:26:21;;;;;;;42.37;23.17;;;;;;;-0.41;94.43;94852.41;5058623;28;20205;-84
2021/11/25 08:28:47;;;;;;;42.53;22.17;;;;;;;-0.38;94.56;94854.75;5044936;28;20206;-84
2021/11/25 08:31:12;;;;;;;40.10;22.47;;;;;;;-0.40;94.29;94846.38;5016500;28;20582;-83
2021/11/25 08:33:38;;;;;;;46.77;24.80;;;;;;;-0.41;94.09;94845.56;5017020;28;20218;-84
2021/11/25 08:36:03;;;;;;;38.83;22.23;;;;;;;-0.47;93.82;94855.34;5031931;28;20174;-84
2021/11/25 08:38:30;;;;;;;44.00;23.47;;;;;;;-0.59;94.18;94850.13;5029311;28;20234;-82
2021/11/25 08:40:56;;;;;;;48.50;25.20;;;;;;;-0.52;93.94;94853.09;5034659;28;20208;-82
2021/11/25 08:43:22;;;;;;;45.33;24.17;;;;;;;-0.43;94.03;94857.63;5029590;28;20541;-83
2021/11/25 08:45:48;;;;;;;46.07;22.53;;;;;;;-0.42;93.71;94850.78;5025687;28;20607;-83
2021/11/25 08:48:13;;;;;;;44.07;21.87;;;;;;;-0.44;93.84;94844.94;5040813;28;20193;-83
2021/11/25 08:50:38;;;;;;;41.90;22.23;;;;;;;-0.41;93.28;94839.66;5065894;28;20189;-82
2021/11/25 08:53:04;;;;;;;45.03;23.80;;;;;;;-0.47;93.45;94835.75;5055460;28;20204;-82
2021/11/25 08:55:34;;;;;;;44.60;23.90;;;;;;;-0.49;93.95;94835.03;5040258;28;20178;-83
2021/11/25 08:58:00;;;;;;;39.30;20.90;;;;;;;-0.47;93.77;94845.97;5026555;28;20167;-82
2021/11/25 09:00:25;;;;;;;36.20;20.97;;;;;;;-0.42;93.51;94843.94;5043921;28;20601;-83
2021/11/25 09:02:52;;;;;;;38.10;21.70;;;;;;;-0.40;93.30;94847.22;5055443;28;20217;-84
2021/11/25 09:05:17;;;;;;;43.00;21.40;;;;;;;-0.49;93.79;94847.81;5036968;28;20270;-84
2021/11/25 09:07:42;;;;;;;36.93;20.37;;;;;;;-0.50;94.38;94847.91;5061758;28;20253;-83
2021/11/25 09:10:08;;;;;;;42.93;22.07;;;;;;;-0.40;93.81;94847.22;5036718;28;20578;-84
2021/11/25 09:12:34;;;;;;;43.10;22.73;;;;;;;-0.39;93.71;94848.03;5047618;28;20201;-82
2021/11/25 09:14:59;;;;;;;44.60;24.23;;;;;;;-0.41;94.47;94848.13;5043821;28;20602;-83
2021/11/25 09:17:25;;;;;;;48.87;25.83;;;;;;;-0.35;94.01;94850.28;5025213;28;20174;-83
2021/11/25 09:19:50;;;;;;;45.23;24.07;;;;;;;-0.39;93.42;94841.19;5037929;28;20199;-85
2021/11/25 09:22:15;;;;;;;49.33;23.87;;;;;;;-0.31;93.44;94843.25;5034520;28;20561;-84
2021/11/25 09:24:41;;;;;;;43.60;23.97;;;;;;;-0.50;93.88;94851.28;5042087;28;20268;-83
2021/11/25 09:27:07;;;;;;;47.67;24.23;;;;;;;-0.46;93.79;94852.69;5048083;28;20299;-84
2021/11/25 09:29:32;;;;;;;43.93;24.80;;;;;;;-0.48;93.83;94864.72;5040698;28;20657;-84
2021/11/25 09:31:57;;;;;;;44.90;24.10;;;;;;;-0.36;93.96;94858.03;5035875;28;20215;-84
2021/11/25 09:34:23;;;;;;;40.20;21.33;;;;;;;-0.30;93.15;94857.63;5038660;28;20562;-83
2021/11/25 09:36:48;;;;;;;42.07;21.77;;;;;;;-0.32;93.22;94851.81;5019126;28;20181;-82
2021/11/25 09:39:14;;;;;;;40.10;22.10;;;;;;;-0.21;93.28;94857.03;5044272;28;20248;-83
2021/11/25 09:41:39;;;;;;;42.57;21.93;;;;;;;-0.34;92.97;94857.03;5043434;28;20189;-83
2021/11/25 09:44:06;;;;;;;42.47;22.13;;;;;;;-0.31;93.26;94856.81;5050165;28;20177;-83
2021/11/25 09:46:32;;;;;;;40.40;22.23;;;;;;;-0.23;92.68;94871.63;5033463;28;20559;-83
2021/11/25 09:48:58;;;;;;;38.77;21.90;;;;;;;-0.37;92.96;94864.84;5070937;28;20209;-85
2021/11/25 09:51:24;;;;;;;47.13;23.80;;;;;;;-0.34;93.34;94866.41;5032894;28;20194;-83
2021/11/25 09:53:51;;;;;;;43.77;22.73;;;;;;;-0.33;92.72;94868.06;5033024;28;20197;-85
2021/11/25 09:56:17;;;;;;;42.17;22.93;;;;;;;-0.30;92.34;94863.56;5059654;28;20184;-85
2021/11/25 09:58:42;;;;;;;44.30;23.77;;;;;;;-0.29;92.73;94860.09;5057290;28;20639;-85
2021/11/25 10:01:10;;;;;;;41.33;22.83;;;;;;;-0.26;92.58;94854.00;5041496;28;20557;-84
2021/11/25 10:03:38;;;;;;;41.10;22.00;;;;;;;-0.14;92.64;94855.72;5033601;28;20210;-84
2021/11/25 10:06:04;;;;;;;37.97;20.70;;;;;;;-0.18;91.80;94858.56;5034209;28;20681;-84
2021/11/25 10:08:36;;;;;;;42.97;22.63;;;;;;;-0.11;92.57;94858.06;5022855;28;20209;-84
2021/11/25 10:11:11;;;;;;;41.73;21.63;;;;;;;-0.02;92.27;94856.66;5052897;28;20173;-85
2021/11/25 10:13:43;;;;;;;42.80;22.13;;;;;;;0.02;91.84;94853.00;5052569;28;20197;-84
2021/11/25 10:16:12;;;;;;;38.73;22.07;;;;;;;0.05;91.15;94857.06;5054988;28;20187;-85
2021/11/25 10:18:38;;;;;;;42.10;22.33;;;;;;;0.01;91.19;94861.56;5032852;28;20186;-85
2021/11/25 10:21:07;;;;;;;39.30;22.87;;;;;;;0.02;91.19;94857.28;5026171;28;20174;-84
2021/11/25 10:23:32;;;;;;;38.33;22.20;;;;;;;0.01;91.10;94859.03;5036954;28;20514;-82
2021/11/25 10:25:59;;;;;;;41.13;21.93;;;;;;;0.10;91.12;94855.88;5035447;28;20296;-83
2021/11/25 10:28:39;;;;;;;41.70;23.00;;;;;;;0.09;91.05;94853.38;5029715;28;20214;-83
2021/11/25 10:31:15;;;;;;;45.67;24.83;;;;;;;0.14;90.71;94851.38;5033926;28;20666;-82
2021/11/25 10:33:58;;;;;;;40.00;21.77;;;;;;;0.13;90.91;94847.19;5033444;28;20197;-84
2021/11/25 10:36:30;;;;;;;45.53;23.00;;;;;;;0.22;90.78;94852.50;5028563;28;20193;-83
2021/11/25 10:39:13;;;;;;;46.37;25.03;;;;;;;0.16;90.12;94849.50;5053071;28;20189;-85
2021/11/25 10:41:40;;;;;;;43.30;22.33;;;;;;;0.12;90.21;94848.09;5052930;28;20184;-84
2021/11/25 10:44:17;;;;;;;41.10;21.80;;;;;;;0.17;90.49;94840.94;5019218;28;20186;-84
2021/11/25 10:46:56;;;;;;;41.00;22.80;;;;;;;0.06;89.78;94843.41;5019955;28;20253;-84
2021/11/25 10:49:39;;;;;;;45.57;24.33;;;;;;;0.11;89.97;94843.91;5053490;28;20611;-84
2021/11/25 10:52:10;;;;;;;45.87;24.33;;;;;;;0.16;90.11;94839.31;5041508;28;20202;-84
2021/11/25 10:54:41;;;;;;;37.20;21.37;;;;;;;0.24;89.48;94842.16;5038105;28;20284;-84
2021/11/25 10:57:06;;;;;;;41.27;22.93;;;;;;;0.27;89.07;94832.59;5034487;28;20190;-84
2021/11/25 10:59:40;;;;;;;40.33;22.93;;;;;;;0.12;89.36;94831.03;5035500;28;20716;-85
2021/11/25 11:02:31;;;;;;;38.60;21.50;;;;;;;-0.01;90.55;94832.75;5035924;28;20194;-84
2021/11/25 11:05:10;;;;;;;42.77;23.37;;;;;;;-0.15;91.13;94837.97;5049575;28;20245;-84
2021/11/25 11:07:38;;;;;;;40.37;22.83;;;;;;;0.09;90.79;94838.91;5052205;28;20204;-84
2021/11/25 11:10:25;;;;;;;40.23;22.17;;;;;;;0.11;90.42;94844.72;5047852;28;20185;-85
2021/11/25 11:13:02;;;;;;;40.07;23.13;;;;;;;0.08;90.20;94839.81;5040236;28;20198;-81
2021/11/25 11:15:34;;;;;;;42.70;24.67;;;;;;;0.16;90.15;94845.22;5043887;28;20220;-80
2021/11/25 11:20:32;;;;;;;39.50;23.47;;;;;;;0.12;90.16;94843.00;5036685;28;20193;-84
2021/11/25 11:23:03;;;;;;;42.43;23.77;;;;;;;0.19;89.76;94841.69;5021386;28;20341;-83